Time;durP1;ratioP1;P1;durP2;ratioP2;P2;SDS_P1;SDS_P2;PMS_P1;PMS_P2;Temp;Humidity;BMP_temperature;BMP_pressure;BME280_temperature;BME280_humidity;BME280_pressure;Samples;Min_cycle;Max_cycle;Signal;HPM_P1;HPM_P2
2021/04/07 00:00:14;;;;;;;9.03;8.20;;;1.10;99.90;;;;;;5035804;28;20432;-78
2021/04/07 00:02:41;;;;;;;8.67;7.87;;;1.10;99.90;;;;;;5034072;28;20458;-76
2021/04/07 00:05:10;;;;;;;9.30;8.07;;;1.10;99.90;;;;;;5038003;28;20443;-78
2021/04/07 00:07:37;;;;;;;9.20;8.37;;;1.10;99.90;;;;;;5031863;28;20482;-77
2021/04/07 00:10:07;;;;;;;8.30;7.70;;;1.10;99.90;;;;;;5038023;28;20432;-78
2021/04/07 00:12:34;;;;;;;8.77;8.07;;;1.10;99.90;;;;;;5039967;28;20816;-78
2021/04/07 00:15:00;;;;;;;8.90;8.10;;;1.10;99.90;;;;;;5035395;28;20484;-77
2021/04/07 00:17:27;;;;;;;8.70;7.90;;;1.00;99.90;;;;;;5035839;23;22211;-77
2021/04/07 00:19:53;;;;;;;9.23;8.33;;;1.00;99.90;;;;;;5005295;28;20966;-78
2021/04/07 00:22:19;;;;;;;8.50;7.90;;;1.00;99.90;;;;;;5014396;28;20436;-78
2021/04/07 00:24:46;;;;;;;8.90;8.20;;;1.00;99.90;;;;;;5018880;28;20443;-78
2021/04/07 00:27:13;;;;;;;9.40;8.63;;;1.00;99.90;;;;;;5033945;28;20471;-78
2021/04/07 00:29:41;;;;;;;9.30;8.53;;;1.00;99.90;;;;;;5015716;28;20524;-77
2021/04/07 00:32:07;;;;;;;8.63;8.03;;;1.10;99.90;;;;;;5023841;28;20447;-79
2021/04/07 00:34:34;;;;;;;8.90;8.20;;;1.10;99.90;;;;;;5031525;28;20950;-78
2021/04/07 00:37:01;;;;;;;9.67;8.97;;;1.10;99.90;;;;;;5017282;28;20489;-78
2021/04/07 00:39:27;;;;;;;9.73;8.97;;;1.00;99.90;;;;;;5019457;28;20493;-77
2021/04/07 00:41:53;;;;;;;9.20;8.33;;;1.00;99.90;;;;;;5020348;28;20444;-77
2021/04/07 00:44:20;;;;;;;9.07;8.27;;;1.00;99.90;;;;;;5020538;28;20866;-78
2021/04/07 00:46:47;;;;;;;9.37;8.50;;;1.00;99.90;;;;;;5016077;28;20490;-79
2021/04/07 00:49:13;;;;;;;8.90;8.30;;;1.00;99.90;;;;;;5016192;28;20447;-78
2021/04/07 00:51:43;;;;;;;9.50;8.60;;;1.00;99.90;;;;;;5017142;28;20589;-78
2021/04/07 00:54:10;;;;;;;8.90;8.30;;;1.00;99.90;;;;;;5034364;28;20454;-77
2021/04/07 00:56:37;;;;;;;10.93;9.13;;;1.00;99.90;;;;;;5040918;28;20471;-77
2021/04/07 00:59:03;;;;;;;9.17;8.47;;;1.00;99.90;;;;;;5020233;28;20443;-78
2021/04/07 01:01:30;;;;;;;9.03;8.40;;;1.00;99.90;;;;;;5029468;28;20951;-77
2021/04/07 01:03:57;;;;;;;8.87;8.27;;;1.00;99.90;;;;;;5024211;28;20451;-77
2021/04/07 01:06:24;;;;;;;9.40;8.77;;;1.00;99.90;;;;;;5018743;28;20487;-77
2021/04/07 01:08:50;;;;;;;9.20;8.50;;;1.00;99.90;;;;;;5016506;28;20443;-78
2021/04/07 01:11:17;;;;;;;8.80;8.10;;;1.10;99.90;;;;;;5017391;28;20459;-78
2021/04/07 01:13:44;;;;;;;8.80;8.20;;;1.10;99.90;;;;;;5016082;28;20436;-77
2021/04/07 01:16:10;;;;;;;9.47;8.67;;;1.10;99.90;;;;;;5027856;28;20435;-77
2021/04/07 01:18:37;;;;;;;8.73;8.13;;;1.10;99.90;;;;;;5028295;28;20453;-78
2021/04/07 01:21:06;;;;;;;9.20;8.50;;;1.10;99.90;;;;;;5030415;28;20456;-77
2021/04/07 01:23:34;;;;;;;9.03;8.30;;;1.10;99.90;;;;;;5021809;28;20431;-77
2021/04/07 01:26:01;;;;;;;7.97;7.47;;;1.20;99.90;;;;;;5020027;28;20469;-77
2021/04/07 01:28:27;;;;;;;8.87;8.07;;;1.20;99.90;;;;;;5020541;28;20475;-78
2021/04/07 01:30:54;;;;;;;8.43;7.73;;;1.20;99.90;;;;;;5010504;28;20427;-77
2021/04/07 01:33:22;;;;;;;8.70;7.97;;;1.20;99.90;;;;;;5023715;28;20565;-78
2021/04/07 01:35:49;;;;;;;8.60;7.80;;;1.20;99.90;;;;;;5024990;28;20443;-77
2021/04/07 01:38:15;;;;;;;8.37;7.73;;;1.20;99.90;;;;;;5022078;28;20468;-77
2021/04/07 01:40:42;;;;;;;8.33;7.73;;;1.10;99.90;;;;;;5030219;28;20450;-77
2021/04/07 01:43:10;;;;;;;8.93;8.13;;;1.20;99.90;;;;;;5031728;28;20446;-77
2021/04/07 01:45:37;;;;;;;7.93;7.23;;;1.20;99.90;;;;;;5034428;28;20549;-77
2021/04/07 01:48:06;;;;;;;7.80;7.30;;;1.20;99.90;;;;;;5036131;28;20554;-77
2021/04/07 01:50:33;;;;;;;8.63;7.93;;;1.20;99.90;;;;;;5030095;28;20445;-77
2021/04/07 01:52:59;;;;;;;8.63;7.80;;;1.10;99.90;;;;;;5025946;28;20987;-79
2021/04/07 01:55:26;;;;;;;8.20;7.60;;;1.10;99.90;;;;;;5026322;28;20455;-78
2021/04/07 01:57:52;;;;;;;8.27;7.60;;;1.10;99.90;;;;;;5024502;28;20462;-77
2021/04/07 02:00:20;;;;;;;9.03;8.23;;;1.10;99.90;;;;;;5031207;28;20465;-77
2021/04/07 02:02:46;;;;;;;8.63;7.93;;;1.10;99.90;;;;;;5033689;28;20443;-78
2021/04/07 02:05:14;;;;;;;8.77;8.07;;;1.10;99.90;;;;;;5032145;28;20501;-77
2021/04/07 02:07:41;;;;;;;8.67;8.00;;;1.10;99.90;;;;;;5030968;28;20505;-78
2021/04/07 02:10:09;;;;;;;8.87;8.17;;;1.00;99.90;;;;;;5044269;28;20447;-78
2021/04/07 02:12:36;;;;;;;8.67;8.07;;;1.00;99.90;;;;;;5028726;28;20962;-77
2021/04/07 02:15:07;;;;;;;8.60;7.93;;;1.00;99.90;;;;;;5028787;28;20443;-77
2021/04/07 02:17:34;;;;;;;8.63;8.03;;;1.10;99.90;;;;;;5024852;28;20475;-78
2021/04/07 02:20:01;;;;;;;9.97;9.03;;;1.00;99.90;;;;;;5026407;28;20439;-77
2021/04/07 02:22:27;;;;;;;9.23;8.53;;;1.00;99.90;;;;;;5024532;28;20504;-77
2021/04/07 02:24:54;;;;;;;8.50;7.80;;;0.90;99.90;;;;;;5022890;28;20824;-78
2021/04/07 02:27:21;;;;;;;8.50;7.90;;;0.90;99.90;;;;;;5027650;28;20475;-77
2021/04/07 02:29:50;;;;;;;8.53;7.73;;;0.90;99.90;;;;;;5030272;28;20794;-77
2021/04/07 02:32:16;;;;;;;8.17;7.57;;;0.90;99.90;;;;;;5039329;28;20624;-77
2021/04/07 02:34:44;;;;;;;8.20;7.60;;;0.90;99.90;;;;;;5036531;28;20513;-80
2021/04/07 02:37:10;;;;;;;8.50;7.90;;;0.90;99.90;;;;;;5036375;28;20461;-77
2021/04/07 02:39:37;;;;;;;10.20;9.20;;;0.90;99.90;;;;;;5020773;28;20429;-78
2021/04/07 02:42:04;;;;;;;8.83;8.13;;;0.90;99.90;;;;;;5008340;28;20432;-75
2021/04/07 02:44:31;;;;;;;8.20;7.60;;;0.90;99.90;;;;;;5036416;28;20502;-75
2021/04/07 02:46:57;;;;;;;8.63;7.93;;;0.90;99.90;;;;;;5017042;28;20471;-75
2021/04/07 02:49:24;;;;;;;7.97;7.37;;;0.90;99.90;;;;;;5012925;28;20431;-76
2021/04/07 02:51:52;;;;;;;7.43;6.87;;;0.90;99.90;;;;;;5017755;28;20430;-77
2021/04/07 02:54:18;;;;;;;7.37;6.83;;;0.90;99.90;;;;;;5021757;28;20832;-79
2021/04/07 02:56:44;;;;;;;7.37;6.87;;;1.00;99.90;;;;;;5008716;28;20522;-77
2021/04/07 02:59:11;;;;;;;7.87;7.17;;;1.00;99.90;;;;;;5018751;28;20474;-77
2021/04/07 03:01:37;;;;;;;7.57;6.87;;;1.00;99.90;;;;;;5012872;28;20450;-77
2021/04/07 03:04:04;;;;;;;7.30;6.80;;;1.00;99.90;;;;;;5011712;28;20451;-77
2021/04/07 03:06:30;;;;;;;7.90;7.20;;;1.00;99.90;;;;;;5012113;28;20476;-78
2021/04/07 03:08:57;;;;;;;7.27;6.77;;;1.00;99.90;;;;;;5021529;28;20431;-77
2021/04/07 03:11:24;;;;;;;8.20;7.60;;;1.00;99.90;;;;;;5017772;28;20489;-77
2021/04/07 03:13:50;;;;;;;9.60;8.90;;;1.00;99.90;;;;;;5015181;28;20443;-77
2021/04/07 03:16:16;;;;;;;8.40;7.80;;;1.00;99.90;;;;;;5018425;28;20434;-76
2021/04/07 03:18:43;;;;;;;8.20;7.70;;;1.00;99.90;;;;;;5016757;28;20431;-80
2021/04/07 03:21:09;;;;;;;8.10;7.50;;;1.00;99.90;;;;;;5021444;28;20478;-79
2021/04/07 03:23:35;;;;;;;8.50;7.90;;;1.00;99.90;;;;;;5019263;28;20602;-77
2021/04/07 03:26:03;;;;;;;9.10;8.50;;;1.00;99.90;;;;;;5031109;28;20458;-77
2021/04/07 03:28:29;;;;;;;9.17;8.47;;;1.00;99.90;;;;;;5019925;28;20485;-77
2021/04/07 03:30:56;;;;;;;8.40;7.80;;;1.00;99.90;;;;;;5013079;28;20428;-78
2021/04/07 03:33:24;;;;;;;8.20;7.60;;;1.00;99.90;;;;;;5011190;28;20467;-78
2021/04/07 03:35:51;;;;;;;8.23;7.50;;;1.00;99.90;;;;;;5017201;28;20499;-77
2021/04/07 03:38:19;;;;;;;8.27;7.57;;;1.00;99.90;;;;;;5013253;28;20468;-77
2021/04/07 03:40:46;;;;;;;8.00;7.40;;;1.00;99.90;;;;;;5016000;28;20439;-78
2021/04/07 03:43:15;;;;;;;7.90;7.30;;;1.00;99.90;;;;;;5017132;28;20448;-77
2021/04/07 03:45:42;;;;;;;7.93;7.33;;;1.00;99.90;;;;;;5018777;28;20439;-77
2021/04/07 03:48:10;;;;;;;8.03;7.50;;;1.00;99.90;;;;;;5016780;28;20998;-77
2021/04/07 03:50:36;;;;;;;7.57;6.97;;;1.00;99.90;;;;;;5016430;28;21164;-77
2021/04/07 03:53:03;;;;;;;8.40;7.67;;;1.00;99.90;;;;;;5019065;28;20828;-76
2021/04/07 03:55:29;;;;;;;8.60;7.97;;;1.00;99.90;;;;;;5014668;28;20454;-77
2021/04/07 03:57:55;;;;;;;8.20;7.60;;;1.00;99.90;;;;;;5016147;28;20485;-77
2021/04/07 04:00:23;;;;;;;9.00;8.27;;;1.00;99.90;;;;;;5018459;28;20435;-77
2021/04/07 04:02:50;;;;;;;8.10;7.30;;;1.00;99.90;;;;;;5017975;28;20802;-76
2021/04/07 04:05:16;;;;;;;8.23;7.53;;;1.00;99.90;;;;;;5017635;28;20451;-76
2021/04/07 04:07:43;;;;;;;8.00;7.40;;;1.00;99.90;;;;;;5015198;28;20472;-77
2021/04/07 04:10:10;;;;;;;7.93;7.33;;;0.90;99.90;;;;;;5020040;28;20448;-77
2021/04/07 04:12:36;;;;;;;8.40;7.60;;;1.00;99.90;;;;;;5018745;28;20452;-76
2021/04/07 04:15:03;;;;;;;8.33;7.63;;;0.90;99.90;;;;;;5015467;28;20446;-77
2021/04/07 04:17:31;;;;;;;7.80;7.20;;;1.00;99.90;;;;;;5012856;28;20474;-76
2021/04/07 04:19:57;;;;;;;8.17;7.47;;;1.00;99.90;;;;;;5013120;28;20490;-77
2021/04/07 04:22:24;;;;;;;7.93;7.43;;;1.00;99.90;;;;;;5013983;28;20438;-77
2021/04/07 04:24:50;;;;;;;9.27;8.43;;;1.00;99.90;;;;;;5016251;28;20432;-76
2021/04/07 04:27:16;;;;;;;8.40;7.70;;;1.00;99.90;;;;;;5023226;28;20497;-76
2021/04/07 04:29:43;;;;;;;8.00;7.40;;;1.00;99.90;;;;;;5019402;28;20449;-76
2021/04/07 04:32:09;;;;;;;8.37;7.57;;;1.10;99.90;;;;;;5019633;28;20459;-76
2021/04/07 04:34:36;;;;;;;8.80;8.10;;;1.00;99.90;;;;;;5019908;28;20457;-76
2021/04/07 04:37:02;;;;;;;8.50;7.70;;;1.00;99.90;;;;;;5016057;28;20470;-77
2021/04/07 04:39:29;;;;;;;8.50;7.90;;;1.00;99.90;;;;;;5016211;28;20447;-77
2021/04/07 04:41:55;;;;;;;8.60;7.90;;;1.00;99.90;;;;;;5021429;28;20429;-76
2021/04/07 04:44:21;;;;;;;8.53;7.83;;;1.00;99.90;;;;;;5021780;28;20435;-76
2021/04/07 04:46:48;;;;;;;8.70;8.10;;;1.00;99.90;;;;;;5013264;28;20487;-77
2021/04/07 04:49:14;;;;;;;9.50;8.60;;;1.10;99.90;;;;;;5018714;28;20432;-76
2021/04/07 04:51:41;;;;;;;8.83;8.20;;;1.10;99.90;;;;;;5017921;28;20873;-78
2021/04/07 04:54:08;;;;;;;8.90;8.20;;;1.00;99.90;;;;;;5018131;28;20451;-77
2021/04/07 04:56:37;;;;;;;9.50;8.60;;;1.00;99.90;;;;;;5013655;28;20459;-76
2021/04/07 04:59:03;;;;;;;7.97;7.37;;;1.00;99.90;;;;;;5018688;28;20447;-76
2021/04/07 05:01:29;;;;;;;8.37;7.77;;;0.90;99.90;;;;;;5017006;28;20447;-78
2021/04/07 05:03:56;;;;;;;9.50;8.67;;;0.90;99.90;;;;;;5022037;28;20424;-78
2021/04/07 05:06:22;;;;;;;9.30;8.50;;;0.90;99.90;;;;;;5017959;28;20516;-78
2021/04/07 05:08:49;;;;;;;9.30;8.50;;;0.90;99.90;;;;;;5021893;28;20529;-76
2021/04/07 05:11:16;;;;;;;9.50;8.77;;;0.90;99.90;;;;;;5017686;28;20439;-77
2021/04/07 05:13:42;;;;;;;9.60;8.80;;;0.90;99.90;;;;;;5026895;28;20463;-76
2021/04/07 05:16:08;;;;;;;9.30;8.60;;;0.90;99.90;;;;;;5021917;28;20972;-76
2021/04/07 05:18:35;;;;;;;9.17;8.47;;;0.90;99.90;;;;;;5021838;28;21082;-78
2021/04/07 05:21:01;;;;;;;9.80;8.80;;;0.90;99.90;;;;;;5020600;28;20435;-76
2021/04/07 05:23:27;;;;;;;9.07;8.37;;;0.90;99.90;;;;;;5032314;28;20464;-76
2021/04/07 05:25:55;;;;;;;9.57;8.87;;;0.90;99.90;;;;;;5025608;28;20510;-76
2021/04/07 05:28:21;;;;;;;8.57;7.93;;;1.00;99.90;;;;;;5021079;28;20468;-74
2021/04/07 05:31:00;;;;;;;9.07;8.47;;;1.00;99.90;;;;;;5026115;28;20525;-76
2021/04/07 05:33:27;;;;;;;9.03;8.33;;;1.00;99.90;;;;;;5029283;28;20451;-76
2021/04/07 05:35:54;;;;;;;9.40;8.70;;;0.90;99.90;;;;;;5014549;28;20451;-77
2021/04/07 05:38:22;;;;;;;8.97;8.37;;;1.00;99.90;;;;;;5022326;28;20516;-76
2021/04/07 05:40:49;;;;;;;9.93;9.03;;;1.00;99.90;;;;;;5027786;28;20526;-77
2021/04/07 05:43:16;;;;;;;9.87;8.97;;;1.00;99.90;;;;;;5029694;28;20456;-77
2021/04/07 05:45:43;;;;;;;9.53;8.67;;;1.10;99.90;;;;;;5018398;28;20450;-78
2021/04/07 05:48:10;;;;;;;10.73;8.90;;;1.20;99.90;;;;;;5021284;28;20471;-77
2021/04/07 05:50:37;;;;;;;9.97;9.23;;;1.20;99.90;;;;;;5015577;28;20436;-76
2021/04/07 05:53:04;;;;;;;9.60;8.87;;;1.20;99.90;;;;;;5014989;28;20455;-76
2021/04/07 05:55:31;;;;;;;9.40;8.70;;;1.20;99.90;;;;;;5015681;28;20831;-76
2021/04/07 05:57:58;;;;;;;9.33;8.63;;;1.30;99.90;;;;;;5014698;28;20474;-76
2021/04/07 06:00:26;;;;;;;9.40;8.70;;;1.30;99.90;;;;;;5018526;28;20943;-76
2021/04/07 06:02:54;;;;;;;9.17;8.47;;;1.30;99.90;;;;;;5024009;28;20444;-77
2021/04/07 06:05:21;;;;;;;9.73;8.83;;;1.30;99.90;;;;;;5016056;28;20444;-78
2021/04/07 06:07:47;;;;;;;9.67;8.87;;;1.40;99.90;;;;;;5021754;28;20486;-76
2021/04/07 06:10:15;;;;;;;9.10;8.40;;;1.50;99.90;;;;;;5019738;28;20441;-77
2021/04/07 06:12:42;;;;;;;10.93;8.80;;;1.50;99.90;;;;;;5022218;28;20456;-77
2021/04/07 06:15:10;;;;;;;9.40;8.50;;;1.60;99.90;;;;;;5021522;28;21033;-77
2021/04/07 06:17:38;;;;;;;9.83;8.97;;;1.60;99.90;;;;;;5014474;28;20472;-76
2021/04/07 06:20:07;;;;;;;9.43;8.73;;;1.70;99.90;;;;;;5012745;28;20537;-76
2021/04/07 06:22:34;;;;;;;8.87;8.07;;;1.80;99.90;;;;;;5014216;28;20851;-76
2021/04/07 06:25:01;;;;;;;8.97;8.27;;;1.90;99.90;;;;;;5013789;28;20448;-78
2021/04/07 06:27:27;;;;;;;8.83;8.17;;;1.90;99.90;;;;;;5030544;28;20529;-77
2021/04/07 06:29:53;;;;;;;9.27;8.57;;;2.00;99.90;;;;;;5034503;28;20487;-79
2021/04/07 06:32:20;;;;;;;8.73;8.13;;;2.10;99.90;;;;;;5024274;28;20469;-77
2021/04/07 06:34:47;;;;;;;9.03;8.23;;;2.10;99.90;;;;;;5029603;28;20449;-78
2021/04/07 06:37:13;;;;;;;8.40;7.80;;;2.20;99.90;;;;;;5017451;28;20472;-77
2021/04/07 06:39:39;;;;;;;8.70;8.00;;;2.20;99.90;;;;;;5017357;28;20513;-78
2021/04/07 06:42:07;;;;;;;9.80;9.10;;;2.30;99.90;;;;;;5014817;28;20431;-78
2021/04/07 06:44:34;;;;;;;8.70;7.90;;;2.40;99.90;;;;;;5031042;28;20465;-78
2021/04/07 06:47:01;;;;;;;8.27;7.57;;;2.50;99.90;;;;;;5017538;28;20475;-78
2021/04/07 06:49:28;;;;;;;8.53;7.83;;;2.60;99.90;;;;;;5019078;28;20503;-77
2021/04/07 06:51:56;;;;;;;8.23;7.40;;;2.60;99.90;;;;;;5018315;28;20442;-78
2021/04/07 06:54:23;;;;;;;8.00;7.30;;;2.70;99.90;;;;;;5018487;28;20454;-78
2021/04/07 06:56:50;;;;;;;8.30;7.53;;;2.90;99.90;;;;;;5014981;28;20456;-77
2021/04/07 06:59:16;;;;;;;8.40;7.67;;;2.90;99.90;;;;;;5018679;28;20499;-78
2021/04/07 07:01:43;;;;;;;8.30;7.50;;;3.00;99.90;;;;;;5021896;28;20451;-78
2021/04/07 07:04:09;;;;;;;8.47;7.77;;;3.20;99.90;;;;;;5016894;28;20996;-78
2021/04/07 07:06:36;;;;;;;8.00;7.37;;;3.20;99.90;;;;;;5017360;28;20478;-78
2021/04/07 07:09:13;;;;;;;9.07;8.37;;;3.20;99.90;;;;;;5018290;28;20477;-77
2021/04/07 07:11:40;;;;;;;8.90;8.07;;;3.20;99.90;;;;;;5021258;28;20512;-77
2021/04/07 07:14:07;;;;;;;8.27;7.53;;;3.10;99.90;;;;;;5017303;28;20454;-78
2021/04/07 07:16:33;;;;;;;8.60;8.00;;;2.90;99.90;;;;;;5036115;28;20474;-77
2021/04/07 07:19:00;;;;;;;8.37;7.67;;;2.90;99.90;;;;;;5015238;28;20502;-76
2021/04/07 07:21:26;;;;;;;8.53;7.73;;;3.20;99.90;;;;;;5016235;28;20534;-77
2021/04/07 07:23:53;;;;;;;8.57;7.93;;;3.60;99.90;;;;;;5017943;28;20448;-77
2021/04/07 07:26:21;;;;;;;8.30;7.67;;;3.90;99.90;;;;;;5019982;28;20461;-78
2021/04/07 07:28:50;;;;;;;8.57;7.93;;;4.00;99.90;;;;;;5018765;28;20478;-78
2021/04/07 07:31:18;;;;;;;8.50;7.83;;;4.10;99.90;;;;;;5018280;28;20532;-76
2021/04/07 07:33:44;;;;;;;8.50;7.80;;;4.20;99.90;;;;;;5015860;28;20439;-77
2021/04/07 07:36:11;;;;;;;8.13;7.53;;;4.10;99.90;;;;;;5021706;28;20423;-78
2021/04/07 07:38:45;;;;;;;8.00;7.20;;;4.00;99.90;;;;;;5015705;28;20521;-77
2021/04/07 07:41:12;;;;;;;8.13;7.50;;;4.00;99.90;;;;;;5019395;28;20447;-78
2021/04/07 07:43:41;;;;;;;8.20;7.57;;;4.00;99.90;;;;;;5018683;28;20692;-78
2021/04/07 07:46:11;;;;;;;8.83;6.97;;;4.20;99.90;;;;;;5016302;28;20446;-77
2021/04/07 07:48:38;;;;;;;7.30;6.77;;;4.40;99.90;;;;;;5019710;28;20471;-77
2021/04/07 07:51:13;;;;;;;8.07;7.20;;;4.50;99.90;;;;;;5017196;28;20732;-77
2021/04/07 07:53:43;;;;;;;8.10;7.40;;;4.60;99.90;;;;;;5015442;28;20201;-78
2021/04/07 07:56:09;;;;;;;7.93;7.30;;;4.70;99.90;;;;;;4996703;28;20196;-78
2021/04/07 07:58:42;;;;;;;6.80;6.40;;;4.80;99.90;;;;;;5033671;28;20201;-78
2021/04/07 08:01:10;;;;;;;6.17;5.77;;;5.00;99.90;;;;;;5018464;28;20204;-79
2021/04/07 08:03:37;;;;;;;5.83;5.13;;;5.00;99.90;;;;;;5031012;28;20195;-77
2021/04/07 08:06:04;;;;;;;8.90;5.87;;;5.00;99.90;;;;;;5031754;28;20204;-76
2021/04/07 08:08:31;;;;;;;7.77;7.17;;;4.90;99.90;;;;;;5014279;28;20689;-76
2021/04/07 08:10:58;;;;;;;8.30;7.60;;;4.90;99.90;;;;;;5024663;28;20195;-76
2021/04/07 08:13:29;;;;;;;7.53;7.03;;;4.70;99.90;;;;;;5019266;28;20199;-77
2021/04/07 08:15:57;;;;;;;8.00;6.97;;;4.50;99.90;;;;;;5029119;28;20192;-77
2021/04/07 08:18:25;;;;;;;8.33;7.50;;;4.40;99.90;;;;;;5017675;28;20200;-76
2021/04/07 08:20:51;;;;;;;7.77;7.27;;;4.30;99.90;;;;;;5011383;28;20223;-76
2021/04/07 08:23:20;;;;;;;7.60;7.00;;;4.30;99.90;;;;;;5026678;28;20550;-79
2021/04/07 08:25:52;;;;;;;7.77;7.17;;;4.20;99.90;;;;;;5028869;28;20200;-77
2021/04/07 08:28:19;;;;;;;7.20;6.70;;;4.10;99.90;;;;;;5008236;28;20260;-76
2021/04/07 08:30:45;;;;;;;7.07;6.47;;;4.10;99.90;;;;;;5014908;28;20200;-76
2021/04/07 08:33:13;;;;;;;7.67;7.07;;;4.20;99.90;;;;;;5022004;28;20469;-76
2021/04/07 08:35:39;;;;;;;7.37;6.87;;;4.10;99.90;;;;;;5014709;28;20439;-76
2021/04/07 08:38:06;;;;;;;8.03;6.60;;;4.10;99.90;;;;;;5018807;28;20466;-77
2021/04/07 08:40:39;;;;;;;6.80;6.40;;;4.20;99.90;;;;;;5019185;28;20505;-77
2021/04/07 08:43:06;;;;;;;7.50;6.90;;;4.20;99.90;;;;;;5016027;28;20439;-76
2021/04/07 08:45:44;;;;;;;7.30;6.70;;;4.30;99.90;;;;;;5012821;28;20461;-79
2021/04/07 08:48:19;;;;;;;7.30;6.80;;;4.40;99.90;;;;;;5016583;28;20219;-77
2021/04/07 08:50:46;;;;;;;6.90;6.50;;;4.20;99.90;;;;;;5012173;28;20443;-78
2021/04/07 08:53:14;;;;;;;7.17;6.77;;;4.20;99.90;;;;;;5022217;28;20459;-77
2021/04/07 08:55:43;;;;;;;7.20;6.70;;;4.40;99.90;;;;;;5021077;28;20450;-77
2021/04/07 08:58:11;;;;;;;6.70;6.30;;;4.70;99.90;;;;;;5021223;28;20221;-78
2021/04/07 09:00:38;;;;;;;7.20;6.70;;;4.80;99.90;;;;;;5025177;28;20204;-77
2021/04/07 09:03:14;;;;;;;7.30;6.60;;;5.10;99.90;;;;;;5019317;28;20196;-77
2021/04/07 09:05:44;;;;;;;7.57;6.97;;;5.20;99.90;;;;;;5021398;28;20261;-77
2021/04/07 09:08:15;;;;;;;7.30;6.80;;;5.50;99.90;;;;;;5019964;28;20219;-78
2021/04/07 09:10:44;;;;;;;7.23;6.63;;;5.80;99.90;;;;;;5017893;28;20620;-77
2021/04/07 09:13:13;;;;;;;7.53;6.77;;;6.20;99.90;;;;;;5024167;28;20233;-77
2021/04/07 09:15:48;;;;;;;6.93;6.40;;;6.50;99.90;;;;;;5019075;28;20554;-77
2021/04/07 09:18:18;;;;;;;7.30;6.80;;;6.70;99.90;;;;;;5021267;28;20954;-77
2021/04/07 09:20:47;;;;;;;7.03;6.43;;;6.60;99.90;;;;;;5020085;28;20205;-78
2021/04/07 09:23:19;;;;;;;7.53;6.93;;;6.30;99.90;;;;;;5016360;28;20268;-77
2021/04/07 09:25:51;;;;;;;7.50;7.00;;;5.90;99.90;;;;;;5020992;28;20203;-77
2021/04/07 09:28:18;;;;;;;7.43;6.73;;;5.40;99.90;;;;;;5021309;28;20229;-77
2021/04/07 09:30:47;;;;;;;7.43;6.80;;;5.00;99.90;;;;;;5024308;28;20660;-76
2021/04/07 09:33:19;;;;;;;6.90;6.40;;;4.70;99.90;;;;;;5015818;28;20203;-77
2021/04/07 09:36:00;;;;;;;7.33;6.70;;;4.60;99.90;;;;;;5022625;28;20201;-77
2021/04/07 09:38:28;;;;;;;7.23;6.73;;;4.70;99.90;;;;;;5023778;28;20197;-77
2021/04/07 09:41:08;;;;;;;7.53;7.03;;;4.70;99.90;;;;;;5019844;28;20192;-77
2021/04/07 09:43:36;;;;;;;7.67;7.13;;;4.60;99.90;;;;;;5022476;28;20204;-77
2021/04/07 09:46:03;;;;;;;7.60;6.90;;;4.40;99.90;;;;;;5017461;28;20672;-76
2021/04/07 09:48:48;;;;;;;7.70;7.10;;;4.50;99.90;;;;;;5021983;28;20220;-79
2021/04/07 09:51:28;;;;;;;7.97;7.40;;;4.80;99.90;;;;;;5015442;28;20196;-78
2021/04/07 09:54:07;;;;;;;7.50;6.90;;;5.20;99.90;;;;;;5027518;28;20208;-77
2021/04/07 09:56:45;;;;;;;6.80;6.40;;;5.30;99.90;;;;;;5012882;28;20225;-78
2021/04/07 09:59:11;;;;;;;7.30;6.80;;;5.60;99.90;;;;;;5028290;28;20351;-78
2021/04/07 10:01:38;;;;;;;7.77;7.10;;;5.80;99.90;;;;;;5029019;28;20192;-78
2021/04/07 10:04:06;;;;;;;9.00;8.20;;;5.90;99.90;;;;;;5026549;28;20200;-78
2021/04/07 10:06:33;;;;;;;7.10;6.60;;;5.70;99.90;;;;;;5013910;28;20240;-78
2021/04/07 10:09:02;;;;;;;6.83;6.23;;;5.80;99.90;;;;;;5010325;28;20597;-78
2021/04/07 10:11:29;;;;;;;7.43;6.93;;;5.80;99.90;;;;;;5014821;28;20221;-78
2021/04/07 10:13:57;;;;;;;7.50;7.00;;;6.10;99.90;;;;;;5013386;28;20201;-78
2021/04/07 10:16:24;;;;;;;7.33;6.80;;;6.60;99.90;;;;;;5027109;28;20225;-75
2021/04/07 10:18:51;;;;;;;7.43;6.83;;;6.90;99.90;;;;;;5030076;28;20218;-78
2021/04/07 10:21:19;;;;;;;7.30;6.80;;;6.90;99.90;;;;;;5015038;28;20209;-78
2021/04/07 10:23:47;;;;;;;7.53;7.00;;;6.70;99.90;;;;;;5027907;28;20232;-77
2021/04/07 10:26:15;;;;;;;6.93;6.53;;;6.50;99.90;;;;;;5028438;28;20205;-78
2021/04/07 10:28:41;;;;;;;7.13;6.63;;;6.40;99.90;;;;;;5013239;28;20726;-78
2021/04/07 10:31:09;;;;;;;7.43;6.83;;;6.20;99.90;;;;;;5027865;28;20202;-78
2021/04/07 10:33:36;;;;;;;7.40;6.90;;;6.10;99.90;;;;;;5027701;28;20213;-77
2021/04/07 10:36:04;;;;;;;7.10;6.57;;;5.90;99.90;;;;;;5012950;28;20205;-77
2021/04/07 10:38:32;;;;;;;7.43;6.93;;;5.50;99.90;;;;;;5015656;28;20205;-78
2021/04/07 10:41:00;;;;;;;8.47;6.73;;;5.20;99.90;;;;;;5015181;28;20577;-77
2021/04/07 10:43:31;;;;;;;7.30;6.80;;;5.10;99.90;;;;;;5029219;28;20228;-77
2021/04/07 10:45:59;;;;;;;7.30;6.70;;;5.30;99.90;;;;;;5022711;28;20204;-77
2021/04/07 10:48:26;;;;;;;6.83;6.30;;;5.40;99.90;;;;;;5026452;28;20249;-77
2021/04/07 10:50:52;;;;;;;6.97;6.40;;;5.40;99.90;;;;;;5030459;28;20196;-77
2021/04/07 10:53:36;;;;;;;7.43;6.60;;;5.50;99.90;;;;;;5020886;28;20212;-78
2021/04/07 10:56:14;;;;;;;7.03;6.43;;;5.50;99.90;;;;;;5014781;28;20313;-79
2021/04/07 10:58:43;;;;;;;7.33;6.73;;;5.60;99.90;;;;;;5032973;28;20235;-77
2021/04/07 11:01:09;;;;;;;7.57;6.87;;;5.60;99.90;;;;;;5010625;28;20225;-78
2021/04/07 11:03:36;;;;;;;6.73;6.23;;;5.70;99.90;;;;;;5017686;28;20197;-77
2021/04/07 11:06:03;;;;;;;7.10;6.60;;;5.70;99.90;;;;;;5016831;28;20216;-76
2021/04/07 11:08:39;;;;;;;6.83;6.40;;;5.90;99.90;;;;;;5016567;28;20220;-77
2021/04/07 11:11:06;;;;;;;7.07;6.50;;;6.00;99.90;;;;;;5014659;28;20203;-77
2021/04/07 11:13:34;;;;;;;6.80;6.30;;;6.30;99.90;;;;;;5017105;28;20199;-78
2021/04/07 11:16:07;;;;;;;7.40;6.80;;;6.60;99.90;;;;;;5016735;28;20211;-78
2021/04/07 11:18:34;;;;;;;7.40;6.90;;;6.80;99.90;;;;;;5015219;28;20430;-78
2021/04/07 11:21:01;;;;;;;6.67;6.20;;;7.10;99.90;;;;;;5018653;28;20666;-77
2021/04/07 11:23:28;;;;;;;7.43;6.83;;;7.30;99.90;;;;;;5023520;28;20237;-78
2021/04/07 11:25:56;;;;;;;7.30;6.70;;;7.30;99.90;;;;;;5027070;28;20234;-78
2021/04/07 11:28:22;;;;;;;7.10;6.50;;;7.50;99.90;;;;;;5022165;28;20216;-78
2021/04/07 11:30:58;;;;;;;6.63;6.13;;;7.70;99.90;;;;;;5024604;28;20213;-77
2021/04/07 11:33:28;;;;;;;6.67;6.17;;;7.80;99.90;;;;;;5020793;28;20196;-78
2021/04/07 11:36:00;;;;;;;6.80;6.40;;;8.00;99.90;;;;;;5014853;28;20659;-78
2021/04/07 11:38:29;;;;;;;7.10;6.50;;;7.90;99.90;;;;;;5020057;28;20196;-78
2021/04/07 11:46:23;;;;;;;6.83;6.27;;;7.50;99.90;;;;;;5018752;28;20226;-77
2021/04/07 11:48:50;;;;;;;6.60;6.20;;;7.60;99.90;;;;;;5016016;28;20687;-80
2021/04/07 11:51:17;;;;;;;6.73;6.23;;;7.80;99.90;;;;;;5021616;28;20301;-77
2021/04/07 11:53:44;;;;;;;6.83;6.30;;;8.00;99.70;;;;;;5015518;28;20747;-78
2021/04/07 11:56:12;;;;;;;7.33;6.83;;;8.30;99.60;;;;;;5014739;28;20255;-77
2021/04/07 11:58:38;;;;;;;7.20;6.57;;;8.30;98.50;;;;;;5020189;28;20199;-78
2021/04/07 12:01:04;;;;;;;6.50;5.97;;;8.60;99.10;;;;;;5016755;28;20268;-76
2021/04/07 12:03:31;;;;;;;6.93;6.33;;;8.90;97.30;;;;;;5010463;28;20207;-77
2021/04/07 12:05:57;;;;;;;7.97;6.63;;;9.00;96.00;;;;;;5013815;28;20189;-76
2021/04/07 12:08:24;;;;;;;6.97;6.37;;;8.20;95.80;;;;;;5019077;28;20212;-76
2021/04/07 12:10:50;;;;;;;7.00;6.40;;;7.80;96.80;;;;;;5013259;28;20522;-77
2021/04/07 12:13:17;;;;;;;6.87;6.30;;;7.70;97.10;;;;;;5009628;28;20199;-76
2021/04/07 12:15:44;;;;;;;7.30;6.70;;;7.20;98.00;;;;;;5011004;28;20573;-76
2021/04/07 12:18:10;;;;;;;7.30;6.67;;;7.10;98.50;;;;;;4994871;28;558194;-75
2021/04/07 12:20:37;;;;;;;7.40;6.80;;;7.10;98.40;;;;;;5010313;28;20285;-75
2021/04/07 12:23:03;;;;;;;7.33;6.43;;;7.30;98.50;;;;;;5014619;28;20581;-75
2021/04/07 12:25:31;;;;;;;7.13;6.53;;;7.40;98.70;;;;;;5016304;28;20300;-76
2021/04/07 12:27:57;;;;;;;7.07;6.47;;;7.40;98.90;;;;;;5027394;28;20277;-74
2021/04/07 12:30:25;;;;;;;7.17;6.67;;;7.50;98.80;;;;;;5020245;28;20686;-76
2021/04/07 12:32:52;;;;;;;6.63;6.03;;;7.50;99.00;;;;;;5017917;28;20207;-76
2021/04/07 12:35:58;;;;;;;6.80;6.30;;;7.30;98.50;;;;;;5017562;28;20210;-75
2021/04/07 12:38:25;;;;;;;6.73;6.20;;;7.00;99.30;;;;;;5034055;28;20207;-77
2021/04/07 12:40:54;;;;;;;6.27;5.77;;;6.60;99.40;;;;;;5020688;28;20275;-76
2021/04/07 12:43:23;;;;;;;7.00;6.30;;;6.50;99.90;;;;;;5022295;28;20615;-76
2021/04/07 12:45:50;;;;;;;6.93;5.93;;;6.50;99.90;;;;;;5021923;28;20202;-76
2021/04/07 12:48:19;;;;;;;7.37;6.80;;;6.50;99.90;;;;;;5018081;28;20258;-76
2021/04/07 12:50:45;;;;;;;6.60;6.10;;;6.50;99.90;;;;;;5017013;28;20429;-75
2021/04/07 12:53:12;;;;;;;7.57;6.97;;;6.60;99.90;;;;;;5016895;28;20577;-77
2021/04/07 12:55:38;;;;;;;7.50;6.80;;;6.50;99.90;;;;;;5018156;28;20202;-77
2021/04/07 12:58:05;;;;;;;7.20;6.50;;;6.30;99.90;;;;;;5017685;28;20266;-77
2021/04/07 13:00:32;;;;;;;7.00;6.37;;;6.30;99.90;;;;;;5024570;28;20212;-77
2021/04/07 13:02:59;;;;;;;7.37;6.27;;;6.30;99.90;;;;;;5020750;28;20245;-78
2021/04/07 13:05:25;;;;;;;7.13;6.43;;;6.50;99.90;;;;;;5035324;28;20201;-76